Time;durP1;ratioP1;P1;durP2;ratioP2;P2;SDS_P1;SDS_P2;PMS_P1;PMS_P2;Temp;Humidity;BMP_temperature;BMP_pressure;BME280_temperature;BME280_humidity;BME280_pressure;Samples;Min_cycle;Max_cycle;Signal;HPM_P1;HPM_P2
2023/02/16 00:00:50;;;;;;;83.40;30.70;;;;;;;-2.46;83.22;100557.69;107248;1282;22539;-77
2023/02/16 00:03:38;;;;;;;66.40;26.50;;;;;;;-2.49;83.21;100556.51;106895;1282;22587;-77
2023/02/16 00:06:13;;;;;;;72.60;25.50;;;;;;;-2.53;82.69;100558.70;106997;1281;24776;-77
2023/02/16 00:08:43;;;;;;;83.50;28.60;;;;;;;-2.55;83.46;100556.71;106952;1281;22806;-76
2023/02/16 00:14:18;;;;;;;98.00;32.40;;;;;;;-2.58;84.34;100559.80;106938;1282;24918;-76
2023/02/16 00:16:50;;;;;;;82.30;30.80;;;;;;;-2.60;83.75;100561.06;106986;1282;22563;-77
2023/02/16 00:19:23;;;;;;;90.40;31.80;;;;;;;-2.63;83.58;100557.70;107760;1282;25354;-77
2023/02/16 00:21:57;;;;;;;75.10;26.90;;;;;;;-2.65;84.64;100551.45;106905;1282;22625;-78
2023/02/16 00:24:29;;;;;;;70.20;27.20;;;;;;;-2.68;84.48;100555.23;106961;1282;22534;-77
2023/02/16 00:26:59;;;;;;;76.50;24.90;;;;;;;-2.70;84.40;100554.78;107019;1262;22528;-78
2023/02/16 00:29:36;;;;;;;67.40;23.90;;;;;;;-2.74;84.37;100548.48;106914;1280;22611;-78
2023/02/16 00:32:12;;;;;;;76.50;24.80;;;;;;;-2.73;84.36;100549.86;106939;1282;24480;-76
2023/02/16 00:34:44;;;;;;;69.30;24.50;;;;;;;-2.73;84.41;100547.17;108604;1282;22577;-78
2023/02/16 00:37:18;;;;;;;66.70;24.40;;;;;;;-2.71;84.68;100546.41;106895;1282;25194;-75
2023/02/16 00:39:52;;;;;;;64.10;22.80;;;;;;;-2.69;84.42;100546.85;106926;1277;24623;-80
2023/02/16 00:42:28;;;;;;;64.20;23.20;;;;;;;-2.69;84.13;100544.30;106912;1282;22558;-77
2023/02/16 00:44:57;;;;;;;53.60;21.00;;;;;;;-2.68;84.29;100539.91;106947;1282;22560;-76
2023/02/16 00:47:34;;;;;;;50.30;17.00;;;;;;;-2.66;84.28;100542.08;106955;1282;22658;-78
2023/02/16 00:50:33;;;;;;;56.50;22.10;;;;;;;-2.64;84.28;100537.79;107008;1279;22529;-77
2023/02/16 00:53:05;;;;;;;74.80;25.00;;;;;;;-2.58;84.87;100535.53;106923;1282;22547;-78
2023/02/16 00:55:41;;;;;;;68.40;22.10;;;;;;;-2.53;84.64;100534.57;106949;1275;22553;-78
2023/02/16 00:58:24;;;;;;;65.90;23.20;;;;;;;-2.53;84.45;100533.41;106944;1282;22625;-77
2023/02/16 01:01:01;;;;;;;69.10;25.90;;;;;;;-2.52;83.99;100533.45;106937;1281;22665;-77
2023/02/16 01:03:39;;;;;;;71.70;24.70;;;;;;;-2.49;83.75;100530.19;107110;1282;25337;-77
2023/02/16 01:12:18;;;;;;;76.30;25.90;;;;;;;-2.55;83.82;100519.70;107315;1282;23631;-78
2023/02/16 01:14:59;;;;;;;69.60;26.50;;;;;;;-2.57;83.93;100515.69;107418;1282;22530;-76
2023/02/16 01:17:32;;;;;;;69.00;25.00;;;;;;;-2.61;84.06;100515.88;106978;1280;23510;-76
2023/02/16 01:20:19;;;;;;;65.70;25.40;;;;;;;-2.64;83.44;100511.14;106959;1275;22555;-77
2023/02/16 01:22:57;;;;;;;66.10;25.00;;;;;;;-2.69;83.77;100512.23;106879;1276;23398;-77
2023/02/16 01:25:34;;;;;;;70.60;25.50;;;;;;;-2.71;84.12;100509.90;106890;1277;25275;-78
2023/02/16 01:28:20;;;;;;;65.50;25.60;;;;;;;-2.76;83.65;100509.65;107022;1280;23197;-76
2023/02/16 01:31:00;;;;;;;73.30;25.40;;;;;;;-2.83;83.68;100510.86;106954;1282;24202;-77
2023/02/16 01:33:39;;;;;;;71.10;24.40;;;;;;;-2.87;83.83;100506.72;109944;1279;22822;-78
2023/02/16 01:36:35;;;;;;;72.50;25.50;;;;;;;-2.93;83.80;100505.59;107089;1275;22522;-77
2023/02/16 01:39:09;;;;;;;64.90;23.50;;;;;;;-2.99;84.01;100505.80;106930;1282;25284;-77
2023/02/16 01:41:50;;;;;;;71.00;24.60;;;;;;;-3.04;83.93;100502.11;106893;1276;22795;-77
2023/02/16 01:44:26;;;;;;;71.10;25.00;;;;;;;-3.09;84.29;100506.08;106936;1276;22530;-76
2023/02/16 01:47:18;;;;;;;76.00;25.90;;;;;;;-3.11;85.30;100502.42;107082;1275;25119;-76
2023/02/16 01:49:55;;;;;;;71.70;24.70;;;;;;;-3.13;84.73;100508.09;106992;1282;23779;-79
2023/02/16 01:52:39;;;;;;;68.60;24.20;;;;;;;-3.16;84.62;100503.86;106959;1275;25304;-78
2023/02/16 01:55:29;;;;;;;62.70;24.20;;;;;;;-3.18;84.60;100505.28;106905;1267;22529;-78
2023/02/16 01:58:10;;;;;;;57.10;21.20;;;;;;;-3.21;84.50;100502.95;106967;1282;25412;-78
2023/02/16 02:01:37;;;;;;;68.80;24.10;;;;;;;-3.23;85.14;100498.92;106853;1282;24369;-77
2023/02/16 02:07:51;;;;;;;60.80;22.20;;;;;;;-3.28;85.27;100489.50;106964;1260;22570;-81
2023/02/16 02:10:45;;;;;;;64.40;21.40;;;;;;;-3.30;85.58;100491.10;106957;1275;22768;-77
2023/02/16 02:13:57;;;;;;;70.00;22.90;;;;;;;-3.32;86.00;100493.17;107192;1272;23142;-76
2023/02/16 02:16:31;;;;;;;61.50;22.60;;;;;;;-3.32;86.45;100491.82;107187;1282;22687;-76
2023/02/16 02:19:10;;;;;;;62.10;22.70;;;;;;;-3.34;85.99;100489.71;107164;1278;22529;-76
2023/02/16 02:26:26;;;;;;;64.60;22.60;;;;;;;-3.37;86.69;100481.77;102632;1282;22518;-77
2023/02/16 02:30:07;;;;;;;56.80;19.10;;;;;;;-3.39;85.70;100485.38;106919;1282;22575;-80
2023/02/16 02:33:34;;;;;;;;;;;;;;;;;;;;;
2023/02/16 02:36:33;;;;;;;53.10;18.30;;;;;;;-3.49;85.76;100485.66;106848;1275;22565;-78
2023/02/16 02:39:25;;;;;;;53.40;19.50;;;;;;;-3.52;85.79;100486.52;109797;1275;23021;-77
2023/02/16 02:42:21;;;;;;;50.30;20.00;;;;;;;-3.56;85.63;100488.84;106769;1282;22629;-77
2023/02/16 02:45:18;;;;;;;54.30;19.00;;;;;;;-3.61;85.27;100486.08;106844;1282;25411;-77
2023/02/16 02:48:00;;;;;;;;;;;;;;;-3.64;85.71;100487.75;106803;1279;25273;-77
2023/02/16 02:51:27;;;;;;;49.30;16.70;;;;;;;-3.66;85.95;100483.25;106848;1275;22588;-77
2023/02/16 02:53:52;;;;;;;44.30;17.10;;;;;;;-3.65;86.23;100487.04;106818;1282;25305;-77
2023/02/16 03:02:34;;;;;;;48.70;17.30;;;;;;;-3.62;85.47;100486.55;106942;1275;24500;-77
2023/02/16 03:05:07;;;;;;;45.90;18.70;;;;;;;-3.60;85.23;100481.73;106986;1282;22553;-78
2023/02/16 03:07:49;;;;;;;56.60;21.00;;;;;;;-3.57;85.23;100479.35;107576;1282;24254;-78
2023/02/16 03:13:28;;;;;;;49.10;18.00;;;;;;;-3.47;84.57;100472.58;106937;1281;22641;-79
2023/02/16 03:15:58;;;;;;;58.20;19.40;;;;;;;-3.43;84.84;100473.84;106951;1276;22553;-78
2023/02/16 03:29:53;;;;;;;59.70;23.10;;;;;;;-3.20;84.95;100474.51;106932;1282;22786;-77
2023/02/16 03:32:22;;;;;;;56.30;22.00;;;;;;;-3.17;85.10;100469.55;106998;1278;24282;-77
2023/02/16 03:34:51;;;;;;;63.70;23.80;;;;;;;-3.16;84.93;100468.89;106979;1282;22564;-77
2023/02/16 03:37:23;;;;;;;76.10;27.20;;;;;;;-3.18;84.44;100469.00;106991;1275;23940;-77
2023/02/16 03:42:57;;;;;;;54.30;21.70;;;;;;;-3.36;83.00;100472.66;106986;1275;25246;-77
2023/02/16 03:45:30;;;;;;;48.90;23.10;;;;;;;-3.44;83.41;100477.34;106882;1277;22588;-77
2023/02/16 03:47:58;;;;;;;57.30;22.10;;;;;;;-3.49;83.63;100477.88;107431;1276;22558;-77
2023/02/16 03:50:29;;;;;;;47.60;17.60;;;;;;;-3.54;83.92;100478.14;106910;1282;22533;-77
2023/02/16 03:53:09;;;;;;;46.50;18.00;;;;;;;-3.62;84.20;100478.23;106913;1277;22520;-77
2023/02/16 03:55:47;;;;;;;52.40;18.90;;;;;;;-3.69;84.49;100476.64;106930;1282;25261;-79
2023/02/16 03:58:19;;;;;;;48.60;17.90;;;;;;;-3.74;84.56;100471.83;106917;1280;22729;-78
2023/02/16 04:00:48;;;;;;;48.80;18.50;;;;;;;-3.79;84.52;100473.60;106848;1281;22554;-78
2023/02/16 04:03:17;;;;;;;53.00;18.80;;;;;;;-3.88;83.84;100467.81;106932;1259;23928;-78
2023/02/16 04:05:46;;;;;;;50.50;20.80;;;;;;;-3.91;84.50;100473.06;106885;1275;22606;-78
2023/02/16 04:08:17;;;;;;;52.50;21.50;;;;;;;-3.98;84.66;100467.64;106903;1282;22527;-77
2023/02/16 04:10:46;;;;;;;52.70;19.80;;;;;;;-4.04;84.98;100464.58;106952;1275;22694;-76
2023/02/16 04:13:15;;;;;;;58.60;20.30;;;;;;;-4.09;84.73;100467.36;106911;1282;22607;-77
2023/02/16 04:15:44;;;;;;;54.80;19.30;;;;;;;-4.16;84.43;100463.56;106988;1275;22559;-77
2023/02/16 04:18:13;;;;;;;54.00;18.40;;;;;;;-4.23;84.56;100459.28;106970;1274;23114;-76
2023/02/16 04:20:41;;;;;;;52.50;20.40;;;;;;;-4.26;85.76;100458.10;106864;1276;24945;-77
2023/02/16 04:23:10;;;;;;;56.60;19.70;;;;;;;-4.28;85.75;100457.30;107031;1282;22550;-82
2023/02/16 04:25:48;;;;;;;56.50;21.00;;;;;;;-4.32;85.70;100450.52;106853;1276;25477;-77
2023/02/16 04:28:17;;;;;;;61.90;23.60;;;;;;;-4.34;85.68;100458.35;106876;1282;22675;-78
2023/02/16 04:30:51;;;;;;;60.40;23.30;;;;;;;-4.37;85.60;100455.27;106966;1275;23344;-76
2023/02/16 04:33:20;;;;;;;61.30;21.70;;;;;;;-4.40;85.90;100454.98;107047;1267;25236;-78
2023/02/16 04:35:51;;;;;;;55.00;21.00;;;;;;;-4.39;86.53;100452.80;106891;1276;23138;-76
2023/02/16 04:38:23;;;;;;;65.40;22.80;;;;;;;-4.40;86.39;100452.77;106906;1278;22548;-77
2023/02/16 04:40:54;;;;;;;56.40;21.90;;;;;;;-4.43;86.69;100453.14;106952;1282;22558;-77
2023/02/16 04:43:25;;;;;;;69.20;26.10;;;;;;;-4.42;86.24;100455.20;106989;1282;23987;-77
2023/02/16 04:45:59;;;;;;;60.00;22.50;;;;;;;-4.42;86.21;100453.33;106906;1277;25496;-76
2023/02/16 04:48:30;;;;;;;56.60;18.90;;;;;;;-4.41;84.41;100454.58;106910;1280;22718;-78
2023/02/16 04:50:59;;;;;;;63.80;21.30;;;;;;;-4.44;83.38;100453.55;106902;1278;26455;-76
2023/02/16 04:53:34;;;;;;;63.40;23.40;;;;;;;-4.46;82.94;100455.15;106967;1273;22534;-76
2023/02/16 04:56:03;;;;;;;65.20;24.60;;;;;;;-4.46;86.03;100453.30;107010;1282;22577;-77
2023/02/16 04:58:34;;;;;;;81.30;28.90;;;;;;;-4.41;87.59;100454.23;106920;1282;25396;-77
2023/02/16 05:01:05;;;;;;;112.30;41.40;;;;;;;-4.37;87.99;100456.79;106824;1283;24827;-78
2023/02/16 05:03:34;;;;;;;113.10;39.30;;;;;;;-4.32;88.58;100456.23;106890;1274;22530;-77
2023/02/16 05:06:06;;;;;;;89.70;33.10;;;;;;;-4.27;87.83;100449.11;106830;1277;24237;-78
2023/02/16 05:08:39;;;;;;;87.50;27.50;;;;;;;-4.20;88.21;100451.16;107004;1274;24381;-77
2023/02/16 05:16:51;;;;;;;80.80;27.70;;;;;;;-3.92;87.79;100446.98;106917;1282;22527;-78
2023/02/16 05:19:23;;;;;;;80.30;28.40;;;;;;;-3.81;88.00;100442.30;106972;1275;22685;-76
2023/02/16 05:21:56;;;;;;;84.10;31.30;;;;;;;-3.69;88.75;100444.29;106940;1275;26544;-77
2023/02/16 05:24:33;;;;;;;83.20;27.60;;;;;;;-3.57;89.53;100445.58;107102;1275;22560;-78
2023/02/16 05:27:07;;;;;;;93.50;30.00;;;;;;;-3.47;88.98;100448.85;107081;1282;22575;-77
2023/02/16 05:29:42;;;;;;;71.90;23.80;;;;;;;-3.39;88.04;100444.02;108041;1282;22541;-77
2023/02/16 05:32:15;;;;;;;63.60;23.00;;;;;;;-3.36;88.42;100445.34;107078;1278;22555;-77
2023/02/16 05:34:46;;;;;;;60.30;21.80;;;;;;;-3.32;88.25;100446.55;107067;1275;23774;-77
2023/02/16 05:37:20;;;;;;;61.50;19.80;;;;;;;-3.33;87.39;100454.45;106961;1276;22564;-76
2023/02/16 05:39:52;;;;;;;53.10;18.50;;;;;;;-3.30;88.50;100457.85;107044;1275;22560;-76
2023/02/16 05:42:21;;;;;;;65.10;19.40;;;;;;;-3.33;88.29;100457.23;106965;1282;23283;-77
2023/02/16 05:44:55;;;;;;;49.30;19.20;;;;;;;-3.37;87.94;100458.52;106913;1281;24202;-77
2023/02/16 05:47:29;;;;;;;55.70;20.50;;;;;;;-3.37;88.40;100456.45;106866;1282;22654;-78
2023/02/16 05:50:03;;;;;;;55.40;19.70;;;;;;;-3.31;88.67;100450.70;106929;1277;22562;-76
2023/02/16 05:52:47;;;;;;;44.50;16.30;;;;;;;-3.35;88.85;100455.05;106870;1282;25295;-78
2023/02/16 05:55:22;;;;;;;45.20;17.80;;;;;;;-3.38;88.47;100453.36;106872;1277;22995;-77
2023/02/16 05:58:01;;;;;;;51.10;18.20;;;;;;;-3.37;88.90;100462.89;106999;1282;22804;-77
2023/02/16 06:00:37;;;;;;;60.30;21.50;;;;;;;-3.35;89.20;100459.95;106875;1275;22531;-77
2023/02/16 06:03:10;;;;;;;64.40;20.80;;;;;;;-3.30;89.13;100467.70;106901;1275;22553;-77
2023/02/16 06:06:01;;;;;;;50.00;17.90;;;;;;;-3.29;88.72;100463.16;107040;1275;22666;-78
2023/02/16 06:08:36;;;;;;;;;;;;;;;-3.29;89.22;100465.55;106999;1275;23228;-76
2023/02/16 06:14:06;;;;;;;51.50;20.10;;;;;;;-3.33;88.83;100462.30;107077;1282;22599;-78
2023/02/16 06:16:44;;;;;;;54.10;19.60;;;;;;;-3.30;88.90;100461.92;107089;1280;25414;-77
2023/02/16 06:19:23;;;;;;;45.10;17.30;;;;;;;-3.34;88.77;100466.15;107570;1275;22580;-76
2023/02/16 06:22:13;;;;;;;48.00;18.40;;;;;;;-3.43;89.97;100465.83;107086;1274;22781;-77
2023/02/16 06:24:44;;;;;;;62.50;20.20;;;;;;;-3.39;89.93;100464.86;106975;1282;22544;-78
2023/02/16 06:27:21;;;;;;;55.80;20.30;;;;;;;-3.40;89.40;100464.48;106907;1278;26539;-76
2023/02/16 06:29:50;;;;;;;54.40;18.50;;;;;;;-3.41;89.66;100466.82;109847;1282;22184;-77
2023/02/16 06:32:23;;;;;;;61.80;22.70;;;;;;;-3.37;89.21;100469.04;106926;1276;25291;-75
2023/02/16 06:35:03;;;;;;;59.80;21.40;;;;;;;-3.36;88.52;100466.02;107189;1282;25348;-77
2023/02/16 06:37:50;;;;;;;48.40;17.60;;;;;;;-3.36;88.93;100465.35;107086;1274;23739;-77
2023/02/16 06:40:39;;;;;;;84.90;24.80;;;;;;;-3.37;88.83;100463.95;107133;1282;22583;-77
2023/02/16 06:43:24;;;;;;;75.30;24.00;;;;;;;-3.37;89.61;100468.31;107217;1275;22583;-77
2023/02/16 06:46:13;;;;;;;99.90;30.00;;;;;;;-3.44;89.29;100468.52;107138;1281;22526;-77
2023/02/16 06:48:51;;;;;;;98.40;28.40;;;;;;;-3.47;89.38;100470.52;106971;1275;22709;-76
2023/02/16 06:51:30;;;;;;;72.70;23.10;;;;;;;-3.45;88.82;100469.48;106983;1279;22702;-76
2023/02/16 06:54:05;;;;;;;76.80;25.00;;;;;;;-3.42;88.82;100470.33;106935;1274;25254;-77
2023/02/16 06:56:44;;;;;;;111.60;35.70;;;;;;;-3.36;89.14;100477.70;106920;1282;25492;-76
2023/02/16 06:59:29;;;;;;;93.20;31.40;;;;;;;-3.33;89.07;100477.74;107286;1278;25490;-76
2023/02/16 07:02:08;;;;;;;67.50;24.00;;;;;;;-3.29;88.55;100481.14;107373;1275;22576;-77
2023/02/16 07:04:42;;;;;;;77.00;25.30;;;;;;;-3.25;89.04;100479.83;107244;1275;25180;-77
2023/02/16 07:07:21;;;;;;;63.30;20.90;;;;;;;-3.18;88.82;100474.61;107318;1275;25927;-76
2023/02/16 07:10:00;;;;;;;79.10;29.20;;;;;;;-3.16;88.71;100475.57;107255;1276;22489;-78
2023/02/16 07:12:41;;;;;;;58.80;22.50;;;;;;;-3.09;89.12;100474.39;107315;1282;25325;-77
2023/02/16 07:15:20;;;;;;;83.60;27.20;;;;;;;-2.97;87.98;100474.30;107402;1273;25476;-76
2023/02/16 07:18:04;;;;;;;66.00;22.80;;;;;;;-2.93;87.83;100476.04;107307;1275;22538;-76
2023/02/16 07:20:43;;;;;;;;;;;;;;;-2.90;88.48;100473.49;107249;1268;22542;-77
2023/02/16 07:23:23;;;;;;;67.60;23.70;;;;;;;-2.85;88.27;100476.10;107271;1278;22562;-77
2023/02/16 07:26:05;;;;;;;62.50;23.30;;;;;;;-2.80;88.69;100473.81;107344;1280;22707;-77
2023/02/16 07:28:36;;;;;;;61.50;22.70;;;;;;;-2.70;88.64;100470.10;107416;1281;24307;-76
2023/02/16 07:31:23;;;;;;;68.70;21.80;;;;;;;-2.62;88.48;100468.79;109264;1271;22794;-81
2023/02/16 07:34:00;;;;;;;58.40;19.80;;;;;;;-2.61;88.11;100467.98;108535;1278;22565;-77
2023/02/16 07:36:31;;;;;;;58.60;20.70;;;;;;;-2.65;88.01;100466.09;107701;1275;25425;-78
2023/02/16 07:39:11;;;;;;;61.00;22.30;;;;;;;-2.60;88.33;100464.66;107820;1275;22533;-79
2023/02/16 07:41:44;;;;;;;67.00;22.10;;;;;;;-2.55;88.46;100463.34;107828;1275;22502;-78
2023/02/16 07:44:28;;;;;;;85.30;30.40;;;;;;;-2.44;88.61;100462.56;107854;1265;22594;-78
2023/02/16 07:47:06;;;;;;;78.90;24.00;;;;;;;-2.40;88.68;100456.12;109561;1261;22569;-78
2023/02/16 07:49:38;;;;;;;64.10;21.70;;;;;;;-2.36;89.01;100454.62;108502;1277;22566;-77
2023/02/16 07:52:11;;;;;;;73.80;25.30;;;;;;;-2.25;88.98;100453.60;107569;1279;23965;-78
2023/02/16 07:54:45;;;;;;;59.80;20.50;;;;;;;-2.20;89.21;100453.49;107641;1277;25534;-80
2023/02/16 07:57:25;;;;;;;60.80;22.50;;;;;;;-2.12;89.02;100453.89;107459;1277;22562;-77
2023/02/16 07:59:59;;;;;;;55.00;20.60;;;;;;;-2.06;88.71;100455.88;107503;1275;24870;-78
2023/02/16 08:02:30;;;;;;;56.20;19.10;;;;;;;-2.07;88.94;100455.33;107561;1275;22574;-81
2023/02/16 08:05:04;;;;;;;52.80;21.00;;;;;;;-2.05;88.57;100460.36;108898;1281;22559;-81
2023/02/16 08:07:40;;;;;;;54.00;22.80;;;;;;;-2.02;88.57;100457.23;108567;1279;22698;-78
2023/02/16 08:10:15;;;;;;;52.60;21.40;;;;;;;-1.99;88.11;100457.07;107536;1275;23233;-78
2023/02/16 08:12:48;;;;;;;67.00;24.40;;;;;;;-2.03;87.69;100460.27;107558;1275;22543;-78
2023/02/16 08:15:27;;;;;;;73.80;26.20;;;;;;;-2.03;88.41;100458.76;107792;1278;22905;-79
2023/02/16 08:18:04;;;;;;;60.10;22.50;;;;;;;-1.97;88.96;100459.16;107439;1275;25440;-78
2023/02/16 08:20:35;;;;;;;58.40;20.90;;;;;;;-1.92;88.30;100461.81;107470;1278;24589;-79
2023/02/16 08:23:27;;;;;;;98.30;34.60;;;;;;;-1.94;88.28;100455.09;107491;1275;23999;-79
2023/02/16 08:26:08;;;;;;;159.40;72.60;;;;;;;-1.88;88.50;100451.64;107515;1280;23275;-79
2023/02/16 08:28:44;;;;;;;93.50;39.80;;;;;;;-1.81;88.17;100449.77;107431;1282;25448;-79
2023/02/16 08:31:23;;;;;;;73.90;29.20;;;;;;;-1.76;88.48;100451.31;107978;1259;22555;-78
2023/02/16 08:34:02;;;;;;;59.90;22.00;;;;;;;-1.70;88.62;100448.02;107812;1275;22608;-80
2023/02/16 08:36:37;;;;;;;65.90;23.00;;;;;;;-1.65;89.23;100448.77;108030;1281;22635;-78
2023/02/16 08:39:14;;;;;;;106.90;34.30;;;;;;;-1.57;89.16;100448.64;107914;1281;24125;-79
2023/02/16 08:41:53;;;;;;;141.70;51.90;;;;;;;-1.51;88.49;100445.84;107529;1275;22589;-79
2023/02/16 08:44:29;;;;;;;81.30;28.20;;;;;;;-1.46;89.05;100446.25;107665;1280;22621;-79
2023/02/16 08:47:06;;;;;;;97.30;35.50;;;;;;;-1.35;89.02;100450.95;107253;1283;22541;-79
2023/02/16 08:49:43;;;;;;;63.70;22.70;;;;;;;-1.20;88.98;100450.59;107440;1278;22740;-79
2023/02/16 08:52:19;;;;;;;54.90;20.00;;;;;;;-1.12;88.54;100457.77;107367;1277;24145;-79
2023/02/16 08:54:51;;;;;;;63.10;21.90;;;;;;;-1.02;88.45;100458.71;107232;1280;24910;-80
2023/02/16 08:57:27;;;;;;;65.70;23.20;;;;;;;-0.90;88.39;100459.38;107209;1278;22588;-78
2023/02/16 09:02:50;;;;;;;61.80;23.70;;;;;;;-0.83;88.18;100458.48;107349;1283;24248;-79
2023/02/16 09:05:27;;;;;;;75.40;25.10;;;;;;;-0.76;88.22;100451.94;107198;1278;22608;-79
2023/02/16 09:07:58;;;;;;;73.60;24.20;;;;;;;-0.64;88.36;100445.15;107235;1283;22611;-80
2023/02/16 09:10:29;;;;;;;68.80;24.50;;;;;;;-0.47;88.31;100442.79;107295;1283;23592;-79
2023/02/16 09:13:07;;;;;;;63.70;22.30;;;;;;;-0.32;88.16;100441.20;107198;1283;25420;-78
2023/02/16 09:15:39;;;;;;;62.00;22.60;;;;;;;-0.15;87.76;100433.31;107297;1271;24190;-78
2023/02/16 09:18:13;;;;;;;73.20;24.60;;;;;;;-0.04;87.60;100436.31;107355;1278;22803;-78
2023/02/16 09:20:52;;;;;;;58.80;22.70;;;;;;;0.05;87.08;100435.47;107251;1281;22547;-79
2023/02/16 09:23:24;;;;;;;69.00;24.00;;;;;;;0.07;86.81;100436.90;107320;1283;23079;-79
2023/02/16 09:25:55;;;;;;;59.50;24.30;;;;;;;0.11;86.44;100437.23;107301;1283;22922;-78
2023/02/16 09:28:29;;;;;;;60.90;24.00;;;;;;;0.13;86.25;100437.68;107384;1277;22532;-78
2023/02/16 09:31:07;;;;;;;65.80;23.30;;;;;;;0.13;85.94;100436.48;107185;1283;22551;-78
2023/02/16 09:33:46;;;;;;;65.00;23.00;;;;;;;0.17;86.21;100432.87;107184;1283;22554;-78
2023/02/16 09:36:29;;;;;;;98.60;40.50;;;;;;;0.26;85.78;100430.83;107132;1278;22546;-79
2023/02/16 09:39:08;;;;;;;79.20;27.00;;;;;;;0.34;85.88;100421.39;107318;1262;26509;-79
2023/02/16 09:42:14;;;;;;;84.80;28.80;;;;;;;0.44;85.66;100418.17;107322;1283;22507;-78
2023/02/16 09:45:13;;;;;;;73.30;25.60;;;;;;;0.46;85.26;100418.07;107870;1283;23740;-79
2023/02/16 09:47:58;;;;;;;78.20;28.00;;;;;;;0.48;84.84;100417.80;107303;1279;25600;-79
2023/02/16 09:50:42;;;;;;;78.50;28.20;;;;;;;0.51;85.24;100418.80;107243;1283;22533;-79
2023/02/16 09:53:45;;;;;;;77.70;26.60;;;;;;;0.59;84.69;100417.00;107383;1273;22572;-78
2023/02/16 09:56:54;;;;;;;68.30;23.80;;;;;;;0.66;84.83;100410.97;107174;1283;22488;-79
2023/02/16 09:59:52;;;;;;;65.40;23.60;;;;;;;0.74;84.60;100412.61;107141;1278;23942;-79
2023/02/16 10:02:59;;;;;;;58.80;22.00;;;;;;;0.82;84.60;100405.23;107276;1278;25220;-79
2023/02/16 10:06:12;;;;;;;64.30;21.60;;;;;;;0.93;84.85;100398.59;107386;1283;22471;-79
2023/02/16 10:08:59;;;;;;;63.40;21.80;;;;;;;1.05;84.96;100393.37;107130;1276;25433;-79
2023/02/16 10:12:05;;;;;;;53.10;20.70;;;;;;;1.16;84.99;100384.55;107311;1283;22561;-80
2023/02/16 10:14:52;;;;;;;69.80;23.50;;;;;;;1.31;84.97;100386.73;107453;1277;22527;-79
2023/02/16 10:17:43;;;;;;;63.30;22.20;;;;;;;1.36;84.49;100383.83;107519;1277;23911;-78
2023/02/16 10:20:29;;;;;;;77.30;27.20;;;;;;;1.48;84.67;100375.64;107386;1283;22548;-79
2023/02/16 10:23:56;;;;;;;71.70;26.90;;;;;;;1.58;83.80;100377.52;107364;1278;24246;-79
2023/02/16 10:26:50;;;;;;;67.00;23.20;;;;;;;1.79;84.18;100372.87;108015;1278;22535;-80
2023/02/16 10:29:39;;;;;;;66.10;25.60;;;;;;;1.93;83.42;100372.42;107512;1283;22529;-79
2023/02/16 10:32:49;;;;;;;72.20;27.60;;;;;;;2.07;82.83;100370.13;107317;1282;23485;-78
2023/02/16 10:36:29;;;;;;;;;;;;;;;;;;;;;
2023/02/16 10:40:08;;;;;;;56.80;23.60;;;;;;;2.10;81.78;100358.06;107662;1277;22559;-80
2023/02/16 10:43:54;;;;;;;61.30;21.50;;;;;;;2.03;81.50;100358.54;107663;1277;25643;-79
2023/02/16 10:47:23;;;;;;;;;;;;;;;;;;;;;
2023/02/16 10:50:57;;;;;;;66.80;23.20;;;;;;;1.84;81.75;100340.20;107633;1283;23000;-79
2023/02/16 10:53:57;;;;;;;60.70;23.10;;;;;;;1.86;82.18;100338.36;107700;1281;24207;-80
2023/02/16 10:57:07;;;;;;;62.70;23.60;;;;;;;1.93;81.90;100336.53;107541;1283;22487;-80
2023/02/16 10:59:55;;;;;;;56.70;21.10;;;;;;;1.93;81.47;100331.55;107805;1278;22542;-80
2023/02/16 11:03:01;;;;;;;62.90;21.10;;;;;;;1.95;81.74;100327.52;107646;1283;24195;-80
2023/02/16 11:05:50;;;;;;;59.80;22.40;;;;;;;2.09;82.29;100319.55;107823;1283;25305;-80
2023/02/16 11:08:48;;;;;;;51.40;20.80;;;;;;;2.22;81.74;100314.29;107635;1283;22923;-79
2023/02/16 11:11:43;;;;;;;49.30;17.90;;;;;;;2.25;81.13;100310.24;108092;1281;22549;-81
2023/02/16 11:14:29;;;;;;;57.50;21.70;;;;;;;2.31;81.48;100302.74;107814;1283;22605;-80
2023/02/16 11:17:12;;;;;;;58.10;19.60;;;;;;;2.46;81.82;100293.55;107582;1283;22548;-80
2023/02/16 11:20:03;;;;;;;52.90;17.50;;;;;;;2.62;81.82;100291.23;107801;1283;23323;-80
2023/02/16 11:22:40;;;;;;;54.60;18.10;;;;;;;2.79;82.00;100288.42;107519;1281;24220;-80
2023/02/16 11:25:32;;;;;;;50.20;17.90;;;;;;;2.91;80.85;100283.25;107756;1281;23847;-80
2023/02/16 11:28:10;;;;;;;46.90;18.80;;;;;;;2.99;81.15;100279.51;107680;1274;22580;-79
2023/02/16 11:30:42;;;;;;;58.70;20.80;;;;;;;3.17;81.94;100275.29;107638;1281;24296;-80
2023/02/16 11:33:27;;;;;;;63.60;20.40;;;;;;;3.32;81.24;100269.16;107802;1277;23408;-81
2023/02/16 11:36:04;;;;;;;52.90;20.90;;;;;;;3.43;80.25;100266.81;107903;1283;22555;-80
2023/02/16 11:38:36;;;;;;;57.50;23.50;;;;;;;3.55;80.34;100263.66;107841;1276;25425;-80
2023/02/16 11:41:06;;;;;;;54.00;21.40;;;;;;;3.67;79.74;100255.16;108034;1283;25956;-79
2023/02/16 11:43:41;;;;;;;61.50;23.10;;;;;;;3.80;78.81;100256.46;107867;1284;22474;-80
2023/02/16 11:46:19;;;;;;;59.60;21.90;;;;;;;3.85;78.37;100246.45;108080;1283;25494;-81
2023/02/16 11:48:50;;;;;;;52.30;22.00;;;;;;;3.99;78.23;100247.42;107810;1278;22532;-81
2023/02/16 11:51:34;;;;;;;55.10;21.10;;;;;;;4.04;77.11;100248.38;107960;1281;22477;-80
2023/02/16 11:54:08;;;;;;;55.70;22.00;;;;;;;4.14;77.82;100243.79;108174;1278;22616;-81
2023/02/16 11:56:39;;;;;;;57.40;22.60;;;;;;;4.23;76.98;100241.89;108131;1279;23080;-81
2023/02/16 11:59:20;;;;;;;58.70;21.60;;;;;;;4.41;78.11;100235.19;108108;1279;22572;-83
2023/02/16 12:02:04;;;;;;;52.30;21.20;;;;;;;4.69;77.41;100228.28;108318;1282;25421;-80
2023/02/16 12:05:26;;;;;;;54.60;22.80;;;;;;;5.00;76.75;100227.94;108702;1278;24511;-80
2023/02/16 12:08:25;;;;;;;57.50;22.80;;;;;;;5.40;75.53;100220.95;108751;1283;23236;-83
2023/02/16 12:11:26;;;;;;;55.60;22.50;;;;;;;5.71;74.83;100219.13;108848;1283;25286;-79
2023/02/16 12:14:26;;;;;;;51.30;22.40;;;;;;;5.96;73.30;100210.68;108832;1284;25372;-81
2023/02/16 12:17:26;;;;;;;53.90;22.70;;;;;;;6.20;73.69;100206.64;108863;1276;23155;-81
2023/02/16 12:20:19;;;;;;;59.00;22.90;;;;;;;6.44;73.28;100198.63;108688;1281;22538;-80
2023/02/16 12:23:06;;;;;;;53.20;23.80;;;;;;;6.73;73.23;100198.70;108704;1283;22584;-83
2023/02/16 12:26:25;;;;;;;52.40;22.40;;;;;;;6.99;71.94;100198.73;108822;1280;22763;-83
2023/02/16 12:29:32;;;;;;;53.10;22.10;;;;;;;7.12;70.41;100196.56;109068;1284;22560;-80
2023/02/16 12:32:33;;;;;;;50.60;22.70;;;;;;;7.21;69.49;100193.02;109044;1260;22280;-81
2023/02/16 12:35:16;;;;;;;45.60;20.80;;;;;;;7.38;69.12;100188.96;109046;1283;22635;-81
2023/02/16 12:38:03;;;;;;;50.70;21.40;;;;;;;7.51;67.32;100191.27;109105;1283;22560;-83
2023/02/16 12:41:42;;;;;;;52.40;22.90;;;;;;;7.68;68.72;100183.25;108849;1278;22551;-81
2023/02/16 12:44:41;;;;;;;46.70;20.40;;;;;;;7.74;67.32;100181.02;108892;1277;23852;-81
2023/02/16 12:47:28;;;;;;;46.60;20.30;;;;;;;7.85;66.85;100175.02;108964;1277;22560;-86
2023/02/16 12:50:16;;;;;;;44.90;20.30;;;;;;;7.91;66.19;100175.04;108888;1281;22630;-80
2023/02/16 12:53:33;;;;;;;51.40;22.80;;;;;;;8.05;67.39;100165.58;108984;1283;22481;-81
2023/02/16 12:56:11;;;;;;;43.00;19.00;;;;;;;8.19;64.37;100161.98;108990;1283;22976;-81
2023/02/16 12:58:54;;;;;;;42.10;19.70;;;;;;;8.29;64.68;100157.16;108817;1281;22550;-80
2023/02/16 13:01:33;;;;;;;41.50;20.00;;;;;;;8.47;64.39;100151.84;108851;1283;22884;-80
2023/02/16 13:04:42;;;;;;;46.50;19.80;;;;;;;8.65;65.42;100152.19;108760;1283;24297;-81
2023/02/16 13:07:45;;;;;;;46.80;19.50;;;;;;;8.78;65.10;100150.80;108671;1281;22527;-81
2023/02/16 13:10:48;;;;;;;38.50;18.10;;;;;;;8.95;62.03;100151.66;108612;1283;22558;-80